createdAt,value
2022-09-21T00:02:13.606Z,8.62
2022-09-21T00:06:18.861Z,8.58
2022-09-21T00:10:22.011Z,8.48
2022-09-21T00:14:24.328Z,8.47
2022-09-21T00:18:26.391Z,8.56
2022-09-21T00:22:29.066Z,8.60
2022-09-21T00:26:31.929Z,8.50
2022-09-21T00:30:33.943Z,8.26
2022-09-21T00:34:36.676Z,8.15
2022-09-21T00:38:39.261Z,8.16
2022-09-21T00:42:41.272Z,8.19
2022-09-21T00:46:45.102Z,8.19
2022-09-21T00:50:53.788Z,8.16
2022-09-21T00:55:06.916Z,8.16
2022-09-21T00:59:10.080Z,8.19
2022-09-21T01:03:13.311Z,8.15
2022-09-21T01:07:20.956Z,8.07
2022-09-21T01:11:44.329Z,7.93
2022-09-21T01:15:58.588Z,7.68
2022-09-21T01:20:25.383Z,7.54
2022-09-21T01:24:51.110Z,7.52
2022-09-21T01:29:15.750Z,7.41
2022-09-21T01:33:29.140Z,7.36
2022-09-21T01:37:46.778Z,7.29
2022-09-21T01:41:50.870Z,7.18
2022-09-21T01:45:57.298Z,7.02
2022-09-21T01:50:02.923Z,6.98
2022-09-21T01:54:14.381Z,6.99
2022-09-21T01:58:26.676Z,6.93
2022-09-21T02:02:51.614Z,6.78
2022-09-21T02:06:54.277Z,6.78
2022-09-21T02:10:56.786Z,6.88
2022-09-21T02:15:00.595Z,7.00
2022-09-21T02:19:17.901Z,7.07
2022-09-21T02:23:27.992Z,7.04
2022-09-21T02:27:41.627Z,6.98
2022-09-21T02:31:59.330Z,6.94
2022-09-21T02:36:11.497Z,6.91
2022-09-21T02:40:25.858Z,6.86
2022-09-21T02:44:35.392Z,6.63
2022-09-21T02:48:43.497Z,6.66
2022-09-21T02:52:45.597Z,6.74
2022-09-21T02:56:49.074Z,6.59
2022-09-21T03:00:51.514Z,6.47
2022-09-21T03:04:54.090Z,6.46
2022-09-21T03:08:58.173Z,6.55
2022-09-21T03:13:01.545Z,6.46
2022-09-21T03:17:03.718Z,6.43
2022-09-21T03:21:06.382Z,6.49
2022-09-21T03:25:13.037Z,6.46
2022-09-21T03:29:15.417Z,6.27
2022-09-21T03:33:21.038Z,6.11
2022-09-21T03:37:23.060Z,6.01
2022-09-21T03:41:25.044Z,6.02
2022-09-21T03:45:29.899Z,6.06
2022-09-21T03:49:32.481Z,6.14
2022-09-21T03:53:34.464Z,6.23
2022-09-21T03:57:36.787Z,6.21
2022-09-21T04:01:38.957Z,6.16
2022-09-21T04:05:41.024Z,6.12
2022-09-21T04:09:43.065Z,6.08
2022-09-21T04:13:50.216Z,6.11
2022-09-21T04:17:53.256Z,5.99
2022-09-21T04:21:56.123Z,5.97
2022-09-21T04:25:58.576Z,5.80
2022-09-21T04:30:00.704Z,5.68
2022-09-21T04:34:02.745Z,5.71
2022-09-21T04:38:04.772Z,5.79
2022-09-21T04:42:07.123Z,5.88
2022-09-21T04:46:11.590Z,6.07
2022-09-21T04:50:14.012Z,6.10
2022-09-21T04:54:16.680Z,6.05
2022-09-21T04:58:23.748Z,6.06
2022-09-21T05:02:26.419Z,5.89
2022-09-21T05:06:29.840Z,5.74
2022-09-21T05:10:31.906Z,5.60
2022-09-21T05:14:33.923Z,5.55
2022-09-21T05:18:36.214Z,5.52
2022-09-21T05:22:38.218Z,5.58
2022-09-21T05:26:40.202Z,5.68
2022-09-21T05:30:56.213Z,5.67
2022-09-21T05:35:22.408Z,5.67
2022-09-21T05:39:24.702Z,5.75
2022-09-21T05:43:26.998Z,5.80
2022-09-21T05:47:46.838Z,5.86
2022-09-21T05:51:55.773Z,6.02
2022-09-21T05:56:09.056Z,6.05
2022-09-21T06:00:22.798Z,6.08
2022-09-21T06:04:25.107Z,6.20
2022-09-21T06:08:27.292Z,6.37
2022-09-21T06:12:29.499Z,6.55
2022-09-21T06:16:42.286Z,6.74
2022-09-21T06:20:44.306Z,6.90
2022-09-21T06:24:46.287Z,6.89
2022-09-21T06:28:48.318Z,7.00
2022-09-21T06:32:50.297Z,7.15
2022-09-21T06:36:52.285Z,7.30
2022-09-21T06:40:54.557Z,7.72
2022-09-21T06:44:56.680Z,8.14
2022-09-21T06:48:58.660Z,8.36
2022-09-21T06:53:01.252Z,8.44
2022-09-21T06:57:03.374Z,8.49
2022-09-21T07:01:07.499Z,8.56
2022-09-21T07:05:09.589Z,8.65
2022-09-21T07:13:34.024Z,8.90
2022-09-21T07:17:38.239Z,9.13
2022-09-21T07:21:40.301Z,9.37
2022-09-21T07:25:49.738Z,9.50
2022-09-21T07:29:52.383Z,9.65
2022-09-21T07:33:58.325Z,9.77
2022-09-21T07:38:01.587Z,9.90
2022-09-21T07:42:03.656Z,9.93
2022-09-21T07:46:07.084Z,9.94
2022-09-21T07:50:09.677Z,10.02
2022-09-21T07:54:12.500Z,10.10
2022-09-21T07:58:33.182Z,10.23
2022-09-21T08:02:35.201Z,10.34
2022-09-21T08:06:39.922Z,10.43
2022-09-21T08:10:42.097Z,10.57
2022-09-21T08:14:44.399Z,10.73
2022-09-21T08:18:46.410Z,10.86
2022-09-21T08:22:48.442Z,10.94
2022-09-21T08:26:52.143Z,11.10
2022-09-21T08:30:54.492Z,11.19
2022-09-21T08:34:56.522Z,11.31
2022-09-21T08:38:58.648Z,11.45
2022-09-21T08:43:12.330Z,11.56
2022-09-21T08:47:14.278Z,11.70
2022-09-21T08:51:23.165Z,11.90
2022-09-21T08:55:25.584Z,11.92
2022-09-21T08:59:28.449Z,11.95
2022-09-21T09:03:51.961Z,12.04
2022-09-21T09:08:27.714Z,12.32
2022-09-21T09:12:53.204Z,12.69
2022-09-21T09:17:32.815Z,13.01
2022-09-21T09:21:39.938Z,13.35
2022-09-21T09:25:43.410Z,13.58
2022-09-21T09:30:15.372Z,13.82
2022-09-21T09:34:31.934Z,13.91
2022-09-21T09:38:40.852Z,13.95
2022-09-21T09:43:02.548Z,13.93
2022-09-21T09:47:23.637Z,14.07
2022-09-21T09:51:26.792Z,14.11
2022-09-21T09:55:39.839Z,14.19
2022-09-21T09:59:53.413Z,14.19
2022-09-21T10:04:17.433Z,14.23
2022-09-21T10:08:39.160Z,14.24
2022-09-21T10:12:46.154Z,14.19
2022-09-21T10:16:51.896Z,14.18
2022-09-21T10:20:55.181Z,14.32
2022-09-21T10:25:01.719Z,14.03
2022-09-21T10:29:31.673Z,14.17
2022-09-21T10:33:49.222Z,14.45
2022-09-21T10:38:11.443Z,14.53
2022-09-21T10:42:18.179Z,14.65
2022-09-21T10:46:34.227Z,14.74
2022-09-21T10:50:37.883Z,14.73
2022-09-21T10:54:41.718Z,14.89
2022-09-21T10:59:21.737Z,15.04
2022-09-21T11:03:42.279Z,15.26
2022-09-21T11:08:10.153Z,14.98
2022-09-21T11:12:37.117Z,15.10
2022-09-21T11:17:08.205Z,15.41
2022-09-21T11:21:20.734Z,15.44
2022-09-21T11:25:32.377Z,15.61
2022-09-21T11:29:47.173Z,15.69
2022-09-21T11:34:02.624Z,15.57
2022-09-21T11:38:10.847Z,15.68
2022-09-21T11:42:27.099Z,15.76
2022-09-21T11:46:33.737Z,15.74
2022-09-21T11:50:44.383Z,15.82
2022-09-21T11:54:59.657Z,16.00
2022-09-21T11:59:29.163Z,16.13
2022-09-21T12:04:03.459Z,16.08
2022-09-21T12:08:29.526Z,16.07
2022-09-21T12:12:59.843Z,16.15
2022-09-21T12:17:05.947Z,16.07
2022-09-21T12:21:20.102Z,15.82
2022-09-21T12:25:31.746Z,15.95
2022-09-21T12:29:38.041Z,15.90
2022-09-21T12:33:55.107Z,15.80
2022-09-21T12:38:12.685Z,15.61
2022-09-21T12:42:48.944Z,15.52
2022-09-21T12:47:09.232Z,15.77
2022-09-21T12:51:32.685Z,16.14
2022-09-21T12:55:44.376Z,16.27
2022-09-21T13:00:05.977Z,16.42
2022-09-21T13:04:26.131Z,16.39
2022-09-21T13:08:36.664Z,16.09
2022-09-21T13:12:43.377Z,15.91
2022-09-21T13:16:54.798Z,15.80
2022-09-21T13:20:56.986Z,15.87
2022-09-21T13:25:18.668Z,16.19
2022-09-21T13:29:26.102Z,16.15
2022-09-21T13:33:30.735Z,16.22
2022-09-21T13:37:33.022Z,16.37
2022-09-21T13:41:58.790Z,16.37
2022-09-21T13:45:58.222Z,16.35
2022-09-21T13:50:20.706Z,16.44
2022-09-21T13:54:50.512Z,16.58
2022-09-21T13:58:57.234Z,16.64
2022-09-21T14:03:04.223Z,16.92
2022-09-21T14:07:07.853Z,17.18
2022-09-21T14:11:22.347Z,17.21
2022-09-21T14:15:24.266Z,17.28
2022-09-21T14:19:33.362Z,17.30
2022-09-21T14:23:39.144Z,16.95
2022-09-21T14:27:46.230Z,16.87
2022-09-21T14:31:52.638Z,16.86
2022-09-21T14:35:56.578Z,16.98
2022-09-21T14:40:03.068Z,17.19
2022-09-21T14:44:05.431Z,17.07
2022-09-21T14:48:20.910Z,16.71
2022-09-21T14:52:41.078Z,16.49
2022-09-21T14:56:51.705Z,16.38
2022-09-21T15:00:54.564Z,16.23
2022-09-21T15:05:15.030Z,16.20
2022-09-21T15:09:52.947Z,16.40
2022-09-21T15:14:27.998Z,16.50
2022-09-21T15:18:30.710Z,16.65
2022-09-21T15:22:32.871Z,16.82
2022-09-21T15:26:34.933Z,17.06
2022-09-21T15:30:45.966Z,17.25
2022-09-21T15:34:49.322Z,17.37
2022-09-21T15:38:52.713Z,17.36
2022-09-21T15:43:01.032Z,17.39
2022-09-21T15:47:07.847Z,17.53
2022-09-21T15:51:31.591Z,17.59
2022-09-21T15:55:34.021Z,17.52
2022-09-21T15:59:36.063Z,17.43
2022-09-21T16:03:39.857Z,17.21
2022-09-21T16:07:42.009Z,16.92
2022-09-21T16:11:44.055Z,16.48
2022-09-21T16:16:00.665Z,16.21
2022-09-21T16:20:02.704Z,16.05
2022-09-21T16:24:22.318Z,15.89
2022-09-21T16:28:41.678Z,15.75
2022-09-21T16:32:44.069Z,15.56
2022-09-21T16:36:49.301Z,15.43
2022-09-21T16:40:53.977Z,15.31
2022-09-21T16:44:55.984Z,15.23
2022-09-21T16:49:00.725Z,15.13
2022-09-21T16:53:02.750Z,15.01
2022-09-21T16:57:06.529Z,14.89
2022-09-21T17:01:12.842Z,14.75
2022-09-21T17:05:18.080Z,14.64
2022-09-21T17:09:28.376Z,14.55
2022-09-21T17:13:31.976Z,14.43
2022-09-21T17:17:33.974Z,14.36
2022-09-21T17:21:35.996Z,14.24
2022-09-21T17:25:38.082Z,14.12
2022-09-21T17:29:47.164Z,14.02
2022-09-21T17:33:50.312Z,13.90
2022-09-21T17:37:52.305Z,13.76
2022-09-21T17:41:59.039Z,13.70
2022-09-21T17:46:08.265Z,13.64
2022-09-21T17:50:13.311Z,13.58
2022-09-21T17:54:15.652Z,13.48
2022-09-21T17:59:04.711Z,13.36
2022-09-21T18:03:40.988Z,13.20
2022-09-21T18:07:43.354Z,13.13
2022-09-21T18:11:55.290Z,13.03
2022-09-21T18:16:19.739Z,12.93
2022-09-21T18:20:32.092Z,12.90
2022-09-21T18:24:34.320Z,12.88
2022-09-21T18:28:43.960Z,12.84
2022-09-21T18:32:58.139Z,12.91
2022-09-21T18:37:18.716Z,12.98
2022-09-21T18:41:36.371Z,12.95
2022-09-21T18:45:44.200Z,12.95
2022-09-21T18:49:59.263Z,12.99
2022-09-21T18:54:01.568Z,12.91
2022-09-21T18:58:03.907Z,12.80
2022-09-21T19:02:21.227Z,12.74
2022-09-21T19:06:42.542Z,12.72
2022-09-21T19:10:53.894Z,12.60
2022-09-21T19:15:13.517Z,12.48
2022-09-21T19:19:18.523Z,12.36
2022-09-21T19:23:23.424Z,12.26
2022-09-21T19:27:50.833Z,12.05
2022-09-21T19:31:52.899Z,11.93
2022-09-21T19:35:54.985Z,11.81
2022-09-21T19:39:57.133Z,11.76
2022-09-21T19:44:36.203Z,11.63
2022-09-21T19:48:46.843Z,11.46
2022-09-21T19:52:49.299Z,11.32
2022-09-21T19:57:09.949Z,11.11
2022-09-21T20:01:17.899Z,10.86
2022-09-21T20:05:38.329Z,10.76
2022-09-21T20:09:45.500Z,10.67
2022-09-21T20:14:22.737Z,10.56
2022-09-21T20:18:48.082Z,10.42
2022-09-21T20:22:50.364Z,10.28
2022-09-21T20:26:52.570Z,10.07
2022-09-21T20:30:54.985Z,9.93
2022-09-21T20:34:57.404Z,9.95
2022-09-21T20:38:59.934Z,9.85
2022-09-21T20:43:02.060Z,9.82
2022-09-21T20:47:04.250Z,9.86
2022-09-21T20:51:06.319Z,9.79
2022-09-21T20:55:13.667Z,9.74
2022-09-21T20:59:15.562Z,9.56
2022-09-21T21:03:17.526Z,9.36
2022-09-21T21:07:19.870Z,9.31
2022-09-21T21:11:22.205Z,9.25
2022-09-21T21:15:24.708Z,9.23
2022-09-21T21:19:27.178Z,9.26
2022-09-21T21:23:30.739Z,9.26
2022-09-21T21:27:33.059Z,9.14
2022-09-21T21:31:35.248Z,8.91
2022-09-21T21:35:37.470Z,8.82
2022-09-21T21:39:39.962Z,8.90
2022-09-21T21:43:42.485Z,8.92
2022-09-21T21:47:44.496Z,8.88
2022-09-21T21:51:49.121Z,8.79
2022-09-21T21:55:51.131Z,8.61
2022-09-21T21:59:53.142Z,8.47
2022-09-21T22:03:58.336Z,8.37
2022-09-21T22:08:00.353Z,8.49
2022-09-21T22:12:03.521Z,8.53
2022-09-21T22:16:17.566Z,8.57
2022-09-21T22:20:19.603Z,8.60
2022-09-21T22:24:22.208Z,8.61
2022-09-21T22:28:24.185Z,8.40
2022-09-21T22:32:26.172Z,8.19
2022-09-21T22:36:33.118Z,8.09
2022-09-21T22:40:35.187Z,8.10
2022-09-21T22:44:37.285Z,8.00
2022-09-21T22:48:39.483Z,7.87
2022-09-21T22:52:41.495Z,7.87
2022-09-21T22:56:43.533Z,7.68
2022-09-21T23:00:45.546Z,7.55
2022-09-21T23:04:47.568Z,7.42
2022-09-21T23:08:51.064Z,7.48
2022-09-21T23:12:53.599Z,7.52
2022-09-21T23:16:55.581Z,7.41
2022-09-21T23:20:59.330Z,7.35
2022-09-21T23:25:01.516Z,7.33
2022-09-21T23:29:08.913Z,7.34
2022-09-21T23:33:11.002Z,7.29
2022-09-21T23:37:13.018Z,7.23
2022-09-21T23:41:24.069Z,7.30
2022-09-21T23:45:26.037Z,7.40
2022-09-21T23:49:28.057Z,7.39
2022-09-21T23:53:31.004Z,7.37
2022-09-21T23:57:33.002Z,7.32
